06h24 EDT


 

Suivi/Infos de l'aéroport


-ou-


 

Suivi des vols en temps réelN350BV ✈ 01-05-2013 ✈ KBFL - KSMF

FlightAware Photo Cow
N350BV
DIANE S LAKE-CA LLC · BAKERSFIELD CA (registration)
Meadows Field ( – info)
Bakersfield, CA
Sacramento Intl ( – info)
Sacramento, CA
14h27 PDT
15h16 PDT
Prévu: 14h00 PDT
Prévu: 14h48 PDT
Durée: 49 minutes
mercredi, 1 mai 2013
Statut A atterri il y a 50 semaines. (journal de vol & graphique)
Avion Cessna Citation CJ2 (biréacteur) (C25A/L – photos)
Vitesse Plan de vol: 380 kts (graphique)
Altitude Plan de vol: 22.000 Pieds (graphique)
Distance En ligne droite 427 km    Prévue 442 km    Parcourue 439 km
Route EHF V23 FRAME V23 CZQ CZQ WRAPS5 (Décoder)
JOURNAL DE L'ACTIVITE
Vous voulez une recherche complète sur l'historique de N350BV depuis 1998? Achetez maintenant. Recevez-le dans l'heure.
Date Avion Provenance Destination Départ Arrivée Durée
17-04-2014 Unknown ()Oxnard () 06h01 UTC 23h18 PDT (-1) (?) 0:17
16-04-2014 C525/LJohn-Wayne ()PACIF 22h59 PDT 01h06 EST (+1) (?) 0:07
16-04-2014 C550Hermanos Ameijeiras ()John-Wayne () 19h56 CDT 17h23 PDT 0:27
16-04-2014 C525/AMeadows Field ()Oxnard () 16h16 PDT 16h36 PDT 0:19
15-04-2014 C25AMeadows Field ()El Monte () 13h22 PDT 13h45 PDT 0:23
15-04-2014 C25A/LInt'l de Los Angeles ()Meadows Field () 10h27 PDT 10h52 PDT 0:25
15-04-2014 C25A/LMeadows Field ()Int'l de Los Angeles () 05h37 PDT 06h06 PDT 0:29
11-04-2014 UnknownJohn-Wayne ()Meadows Field () 19h23 PDT 19h56 PDT 0:33
11-04-2014 C525Meadows Field ()John-Wayne () 18h23 PDT 18h57 PDT 0:34
10-04-2014 C25A/LInt'l d'Oakland ()Meadows Field () 12h30 PDT 13h16 PDT 0:46
10-04-2014 C25A/LInt'l de San José ()Int'l d'Oakland () 10h52 PDT 11h04 PDT 0:12
10-04-2014 C25A/LJohn-Wayne ()Int'l de San José () 09h24 PDT 10h30 PDT 1:06
10-04-2014 C25A/LMeadows Field ()John-Wayne () 08h19 PDT 08h58 PDT 0:38
09-04-2014 UnknownSanta Monica Muni ()Meadows Field () 15h47 PDT 16h09 PDT 0:22
09-04-2014 C25AMeadows Field ()Santa Monica Muni () 14h57 PDT 15h21 PDT (?) 0:24
09-04-2014 UnknownSanta Monica Muni ()Meadows Field () 10h22 PDT 10h45 PDT 0:23
08-04-2014 C25AJohn-Wayne ()Meadows Field () 18h50 PDT 19h19 PDT 0:29
08-04-2014 UnknownBob Hope ()John-Wayne () 18h14 PDT 18h31 PDT 0:17
08-04-2014 C25AMeadows Field ()John-Wayne () 10h54 PDT 11h30 PDT 0:35
07-04-2014 C25A/LInt'l de Los Angeles ()Tehachapi Muni () 22h38 PDT 23h00 PDT 0:22
07-04-2014 C25A/LMeadows Field ()Int'l de Los Angeles () 21h38 PDT 22h10 PDT 0:32
06-04-2014 C25A/LInt'l de Los Angeles ()Meadows Field () 22h18 PDT 22h45 PDT 0:27
06-04-2014 C25A/LTehachapi Muni ()Int'l de Los Angeles () 21h38 PDT 22h11 PDT 0:32
06-04-2014 C525John-Wayne ()Meadows Field () 18h32 PDT 19h01 PDT 0:29
06-04-2014 C25AInt'l de San José ()John-Wayne () 16h58 PDT 18h06 PDT 1:08
06-04-2014 C25A/LMeadows Field ()Int'l d'Oakland () 15h18 PDT 16h06 PDT 0:48
05-04-2014 C25A/LInt'l de Los Angeles ()Oxnard () 23h07 PDT 23h17 PDT (?) 0:10
05-04-2014 C25A/LMeadows Field ()Int'l de Los Angeles () 21h56 PDT 22h24 PDT 0:28
03-04-2014 C25A/LSanta Monica Muni ()Meadows Field () 20h32 PDT 20h54 PDT 0:22
03-04-2014 C25A/LMeadows Field ()Santa Monica Muni () 19h52 PDT 20h16 PDT 0:24
03-04-2014 C25A/LSalinas Muni ()Meadows Field () 19h05 PDT 19h34 PDT 0:29
03-04-2014 C25A/LMeadows Field ()Monterey Rgnl () 15h29 PDT 15h56 PDT 0:26
03-04-2014 C25ASanta Monica Muni ()Meadows Field () 10h32 PDT 10h54 PDT 0:22
03-04-2014 UnknownMeadows Field ()Santa Monica Muni () 09h47 PDT 10h10 PDT 0:23
Les membres inscrits (l'inscription est gratuite et facile!) voient 4 months d'historique. S'inscrire